首页
METAR-TAF:

METAR-TAF

机场 :

伊玛目霍梅尼国际机场

德黑兰, 伊朗

纬度: 35-24-58N, 经度: 51-09-08E, 海拔: 1007米

当前天气观测

该预报发布于52分钟前的23:00 UTC
风速6节,风向西北
温度 24°C
湿度 20%
气压 1012 hPa
能见度10公里或以上
少量云层高于10000英尺
散云层高于20000英尺

METAR: OIIE 302300Z 31006KT 9999 FEW100 SCT200 24/M00 Q1012

时间: 04:22 (23:52 UTC)

预报

该预报发布于52分钟前的23:00 UTC
预报有效从31日的 00点(UTC)到 01日的 06点(UTC)
风速8节,风向东转东南
能見度: 7000
少量云层高于3500英尺
短暂存在
从 31日的 09点(UTC)到 31日的 18点(UTC)
风速12节,风向西转西南,有时为20节阵风
少量云层高于3000英尺, 积雨云.
散云层高于3500英尺
散云层高于10000英尺
短暂存在
从 01日的 00点(UTC)到 01日的 06点(UTC)
风速12节,风向西北,有时为20节阵风

TAF: OIIE 302300Z 3100/0106 12008KT 7000 FEW035 TEMPO 3109/3118 24012G20KT FEW030CB SCT035 SCT100 TEMPO 0100/0106 32012G20KT

超过4000个机场的气象观测和天气预报(METAR&TAF报告)。

可查询的气象台以黄色和红色小点在地图上表示。

将鼠标移到小点上方,可查看气象台名称。

然后点击查看天气观测和预报。

如需切换地图:点击带黑十字的绿色按钮放大地图;点击带横线的绿色按钮缩小地图;或者点击绿色箭头查看邻近地区的地图。


METAR-TAF: